sensor_id;sensor_type;location;lat;lon;timestamp;P1;durP1;ratioP1;P2;durP2;ratioP2
59054;SDS011;44845;51.444;7.460;2023-03-01T00:00:10;8.70;;;4.97;;
59054;SDS011;44845;51.444;7.460;2023-03-01T00:02:36;8.73;;;5.28;;
59054;SDS011;44845;51.444;7.460;2023-03-01T00:05:01;12.70;;;5.57;;
59054;SDS011;44845;51.444;7.460;2023-03-01T00:07:27;9.85;;;5.13;;
59054;SDS011;44845;51.444;7.460;2023-03-01T00:09:52;7.70;;;4.68;;
59054;SDS011;44845;51.444;7.460;2023-03-01T00:12:19;9.20;;;4.72;;
59054;SDS011;44845;51.444;7.460;2023-03-01T00:14:45;9.57;;;4.93;;
59054;SDS011;44845;51.444;7.460;2023-03-01T00:17:10;7.18;;;4.90;;
59054;SDS011;44845;51.444;7.460;2023-03-01T00:19:35;6.50;;;4.93;;
59054;SDS011;44845;51.444;7.460;2023-03-01T00:22:01;8.90;;;4.55;;
59054;SDS011;44845;51.444;7.460;2023-03-01T00:24:26;7.10;;;4.85;;
59054;SDS011;44845;51.444;7.460;2023-03-01T00:26:52;8.25;;;5.35;;
59054;SDS011;44845;51.444;7.460;2023-03-01T00:29:20;9.25;;;4.90;;
59054;SDS011;44845;51.444;7.460;2023-03-01T00:31:46;9.43;;;5.70;;
59054;SDS011;44845;51.444;7.460;2023-03-01T00:34:11;8.25;;;4.95;;
59054;SDS011;44845;51.444;7.460;2023-03-01T00:36:36;9.60;;;5.20;;
59054;SDS011;44845;51.444;7.460;2023-03-01T00:39:03;13.40;;;5.93;;
59054;SDS011;44845;51.444;7.460;2023-03-01T00:41:30;8.23;;;4.82;;
59054;SDS011;44845;51.444;7.460;2023-03-01T00:43:56;6.53;;;4.85;;
59054;SDS011;44845;51.444;7.460;2023-03-01T00:46:22;7.13;;;4.72;;
59054;SDS011;44845;51.444;7.460;2023-03-01T00:48:50;8.98;;;5.57;;
59054;SDS011;44845;51.444;7.460;2023-03-01T00:51:21;11.70;;;5.55;;
59054;SDS011;44845;51.444;7.460;2023-03-01T00:53:52;8.93;;;5.72;;
59054;SDS011;44845;51.444;7.460;2023-03-01T00:56:19;7.43;;;5.25;;
59054;SDS011;44845;51.444;7.460;2023-03-01T00:58:46;8.73;;;5.20;;
59054;SDS011;44845;51.444;7.460;2023-03-01T01:01:13;10.50;;;5.45;;
59054;SDS011;44845;51.444;7.460;2023-03-01T01:03:56;8.88;;;5.28;;
59054;SDS011;44845;51.444;7.460;2023-03-01T01:06:30;7.15;;;5.65;;
59054;SDS011;44845;51.444;7.460;2023-03-01T01:08:57;8.95;;;6.30;;
59054;SDS011;44845;51.444;7.460;2023-03-01T01:11:26;10.23;;;5.95;;
59054;SDS011;44845;51.444;7.460;2023-03-01T01:13:52;10.43;;;6.28;;
59054;SDS011;44845;51.444;7.460;2023-03-01T01:16:18;10.20;;;6.35;;
59054;SDS011;44845;51.444;7.460;2023-03-01T01:18:45;10.70;;;6.25;;
59054;SDS011;44845;51.444;7.460;2023-03-01T01:21:12;9.85;;;6.40;;
59054;SDS011;44845;51.444;7.460;2023-03-01T01:23:40;10.70;;;5.55;;
59054;SDS011;44845;51.444;7.460;2023-03-01T01:26:06;12.75;;;6.70;;
59054;SDS011;44845;51.444;7.460;2023-03-01T01:28:34;9.95;;;6.40;;
59054;SDS011;44845;51.444;7.460;2023-03-01T01:30:59;10.68;;;5.57;;
59054;SDS011;44845;51.444;7.460;2023-03-01T01:33:25;8.70;;;5.72;;
59054;SDS011;44845;51.444;7.460;2023-03-01T01:35:51;9.43;;;5.80;;
59054;SDS011;44845;51.444;7.460;2023-03-01T01:38:16;11.05;;;6.18;;
59054;SDS011;44845;51.444;7.460;2023-03-01T01:40:45;12.57;;;7.63;;
59054;SDS011;44845;51.444;7.460;2023-03-01T01:43:28;9.02;;;6.40;;
59054;SDS011;44845;51.444;7.460;2023-03-01T01:45:56;9.10;;;5.87;;
59054;SDS011;44845;51.444;7.460;2023-03-01T01:48:29;11.88;;;7.10;;
59054;SDS011;44845;51.444;7.460;2023-03-01T01:51:05;11.93;;;7.20;;
59054;SDS011;44845;51.444;7.460;2023-03-01T01:53:34;17.80;;;7.65;;
59054;SDS011;44845;51.444;7.460;2023-03-01T01:56:01;15.30;;;7.75;;
59054;SDS011;44845;51.444;7.460;2023-03-01T01:58:27;11.60;;;6.68;;
59054;SDS011;44845;51.444;7.460;2023-03-01T02:00:55;9.60;;;6.40;;
59054;SDS011;44845;51.444;7.460;2023-03-01T02:03:25;9.30;;;6.43;;
59054;SDS011;44845;51.444;7.460;2023-03-01T02:06:01;11.48;;;7.03;;
59054;SDS011;44845;51.444;7.460;2023-03-01T02:08:29;12.60;;;6.63;;
59054;SDS011;44845;51.444;7.460;2023-03-01T02:10:57;8.38;;;6.10;;
59054;SDS011;44845;51.444;7.460;2023-03-01T02:13:26;10.25;;;6.53;;
59054;SDS011;44845;51.444;7.460;2023-03-01T02:15:51;9.95;;;6.63;;
59054;SDS011;44845;51.444;7.460;2023-03-01T02:18:17;11.43;;;6.55;;
59054;SDS011;44845;51.444;7.460;2023-03-01T02:23:22;10.13;;;6.72;;
59054;SDS011;44845;51.444;7.460;2023-03-01T02:25:52;9.45;;;6.63;;
59054;SDS011;44845;51.444;7.460;2023-03-01T02:28:39;14.00;;;6.90;;
59054;SDS011;44845;51.444;7.460;2023-03-01T02:31:07;11.95;;;7.07;;
59054;SDS011;44845;51.444;7.460;2023-03-01T02:33:52;12.43;;;6.95;;
59054;SDS011;44845;51.444;7.460;2023-03-01T02:36:19;12.55;;;6.78;;
59054;SDS011;44845;51.444;7.460;2023-03-01T02:38:48;12.05;;;6.65;;
59054;SDS011;44845;51.444;7.460;2023-03-01T02:41:16;11.85;;;6.50;;
59054;SDS011;44845;51.444;7.460;2023-03-01T02:43:44;11.18;;;6.60;;
59054;SDS011;44845;51.444;7.460;2023-03-01T02:46:14;11.98;;;6.70;;
59054;SDS011;44845;51.444;7.460;2023-03-01T02:48:43;11.80;;;7.25;;
59054;SDS011;44845;51.444;7.460;2023-03-01T02:56:35;12.80;;;6.90;;
59054;SDS011;44845;51.444;7.460;2023-03-01T02:59:00;11.68;;;6.63;;
59054;SDS011;44845;51.444;7.460;2023-03-01T03:01:27;11.70;;;7.32;;
59054;SDS011;44845;51.444;7.460;2023-03-01T03:04:05;9.65;;;7.03;;
59054;SDS011;44845;51.444;7.460;2023-03-01T03:06:33;12.82;;;7.55;;
59054;SDS011;44845;51.444;7.460;2023-03-01T03:08:59;15.50;;;8.98;;
59054;SDS011;44845;51.444;7.460;2023-03-01T03:11:24;13.75;;;7.93;;
59054;SDS011;44845;51.444;7.460;2023-03-01T03:13:50;11.65;;;7.95;;
59054;SDS011;44845;51.444;7.460;2023-03-01T03:16:16;13.95;;;8.80;;
59054;SDS011;44845;51.444;7.460;2023-03-01T03:18:42;15.15;;;8.50;;
59054;SDS011;44845;51.444;7.460;2023-03-01T03:21:08;13.07;;;7.95;;
59054;SDS011;44845;51.444;7.460;2023-03-01T03:23:35;13.88;;;8.23;;
59054;SDS011;44845;51.444;7.460;2023-03-01T03:26:01;13.52;;;8.32;;
59054;SDS011;44845;51.444;7.460;2023-03-01T03:28:29;14.48;;;7.88;;
59054;SDS011;44845;51.444;7.460;2023-03-01T03:30:58;13.93;;;8.30;;
59054;SDS011;44845;51.444;7.460;2023-03-01T03:33:28;13.38;;;8.15;;
59054;SDS011;44845;51.444;7.460;2023-03-01T03:35:56;12.95;;;7.85;;
59054;SDS011;44845;51.444;7.460;2023-03-01T03:38:22;11.38;;;7.70;;
59054;SDS011;44845;51.444;7.460;2023-03-01T03:40:51;12.00;;;7.95;;
59054;SDS011;44845;51.444;7.460;2023-03-01T03:43:27;10.13;;;7.38;;
59054;SDS011;44845;51.444;7.460;2023-03-01T03:45:54;10.75;;;6.75;;
59054;SDS011;44845;51.444;7.460;2023-03-01T03:48:21;14.45;;;7.88;;
59054;SDS011;44845;51.444;7.460;2023-03-01T03:50:48;12.30;;;7.70;;
59054;SDS011;44845;51.444;7.460;2023-03-01T03:53:15;9.98;;;7.60;;
59054;SDS011;44845;51.444;7.460;2023-03-01T03:55:41;10.80;;;6.85;;
59054;SDS011;44845;51.444;7.460;2023-03-01T03:58:08;12.77;;;7.90;;
59054;SDS011;44845;51.444;7.460;2023-03-01T04:00:38;12.00;;;7.72;;
59054;SDS011;44845;51.444;7.460;2023-03-01T04:03:08;9.52;;;6.75;;
59054;SDS011;44845;51.444;7.460;2023-03-01T04:05:35;13.18;;;6.95;;
59054;SDS011;44845;51.444;7.460;2023-03-01T04:08:00;14.90;;;7.28;;
59054;SDS011;44845;51.444;7.460;2023-03-01T04:10:56;11.65;;;7.35;;
59054;SDS011;44845;51.444;7.460;2023-03-01T04:13:21;15.20;;;7.90;;
59054;SDS011;44845;51.444;7.460;2023-03-01T04:15:48;15.02;;;7.80;;
59054;SDS011;44845;51.444;7.460;2023-03-01T04:18:16;10.75;;;7.38;;
59054;SDS011;44845;51.444;7.460;2023-03-01T04:20:43;17.73;;;7.45;;
59054;SDS011;44845;51.444;7.460;2023-03-01T04:23:11;11.68;;;7.95;;
59054;SDS011;44845;51.444;7.460;2023-03-01T04:25:54;12.25;;;7.15;;
59054;SDS011;44845;51.444;7.460;2023-03-01T04:30:50;11.13;;;7.05;;
59054;SDS011;44845;51.444;7.460;2023-03-01T04:33:16;11.65;;;7.65;;
59054;SDS011;44845;51.444;7.460;2023-03-01T04:35:42;11.27;;;7.43;;
59054;SDS011;44845;51.444;7.460;2023-03-01T04:38:08;12.50;;;7.45;;
59054;SDS011;44845;51.444;7.460;2023-03-01T04:40:33;12.10;;;7.20;;
59054;SDS011;44845;51.444;7.460;2023-03-01T04:42:59;11.43;;;7.72;;
59054;SDS011;44845;51.444;7.460;2023-03-01T04:45:24;13.70;;;7.32;;
59054;SDS011;44845;51.444;7.460;2023-03-01T04:47:50;11.48;;;6.90;;
59054;SDS011;44845;51.444;7.460;2023-03-01T04:50:17;14.10;;;7.82;;
59054;SDS011;44845;51.444;7.460;2023-03-01T04:52:46;11.90;;;7.18;;
59054;SDS011;44845;51.444;7.460;2023-03-01T04:55:12;13.27;;;7.35;;
59054;SDS011;44845;51.444;7.460;2023-03-01T04:57:38;12.38;;;7.85;;
59054;SDS011;44845;51.444;7.460;2023-03-01T05:00:05;16.58;;;7.45;;
59054;SDS011;44845;51.444;7.460;2023-03-01T05:02:55;16.88;;;7.35;;
59054;SDS011;44845;51.444;7.460;2023-03-01T05:05:23;11.18;;;7.38;;
59054;SDS011;44845;51.444;7.460;2023-03-01T05:07:51;12.25;;;7.22;;
59054;SDS011;44845;51.444;7.460;2023-03-01T05:10:18;10.38;;;6.60;;
59054;SDS011;44845;51.444;7.460;2023-03-01T05:12:44;11.02;;;6.90;;
59054;SDS011;44845;51.444;7.460;2023-03-01T05:15:09;11.88;;;7.30;;
59054;SDS011;44845;51.444;7.460;2023-03-01T05:17:35;16.27;;;7.50;;
59054;SDS011;44845;51.444;7.460;2023-03-01T05:20:00;11.68;;;7.40;;
59054;SDS011;44845;51.444;7.460;2023-03-01T05:22:26;13.25;;;7.60;;
59054;SDS011;44845;51.444;7.460;2023-03-01T05:24:51;13.30;;;7.80;;
59054;SDS011;44845;51.444;7.460;2023-03-01T05:27:18;11.70;;;7.20;;
59054;SDS011;44845;51.444;7.460;2023-03-01T05:29:47;11.38;;;7.05;;
59054;SDS011;44845;51.444;7.460;2023-03-01T05:32:12;13.07;;;7.47;;
59054;SDS011;44845;51.444;7.460;2023-03-01T05:34:40;16.13;;;7.82;;
59054;SDS011;44845;51.444;7.460;2023-03-01T05:37:06;14.18;;;7.03;;
59054;SDS011;44845;51.444;7.460;2023-03-01T05:39:32;13.27;;;8.05;;
59054;SDS011;44845;51.444;7.460;2023-03-01T05:41:59;13.18;;;7.65;;
59054;SDS011;44845;51.444;7.460;2023-03-01T05:44:26;12.63;;;7.43;;
59054;SDS011;44845;51.444;7.460;2023-03-01T05:46:53;13.40;;;7.55;;
59054;SDS011;44845;51.444;7.460;2023-03-01T05:49:19;12.40;;;7.50;;
59054;SDS011;44845;51.444;7.460;2023-03-01T05:51:48;13.35;;;7.30;;
59054;SDS011;44845;51.444;7.460;2023-03-01T05:54:15;10.50;;;7.53;;
59054;SDS011;44845;51.444;7.460;2023-03-01T05:56:41;14.38;;;8.65;;
59054;SDS011;44845;51.444;7.460;2023-03-01T05:59:06;15.25;;;7.90;;
59054;SDS011;44845;51.444;7.460;2023-03-01T06:01:32;12.75;;;7.65;;
59054;SDS011;44845;51.444;7.460;2023-03-01T06:03:58;10.90;;;7.18;;
59054;SDS011;44845;51.444;7.460;2023-03-01T06:06:24;12.07;;;7.00;;
59054;SDS011;44845;51.444;7.460;2023-03-01T06:08:49;10.32;;;6.70;;
59054;SDS011;44845;51.444;7.460;2023-03-01T06:11:15;11.48;;;6.82;;
59054;SDS011;44845;51.444;7.460;2023-03-01T06:13:41;12.65;;;7.43;;
59054;SDS011;44845;51.444;7.460;2023-03-01T06:16:09;10.63;;;7.32;;
59054;SDS011;44845;51.444;7.460;2023-03-01T06:18:35;14.90;;;8.00;;
59054;SDS011;44845;51.444;7.460;2023-03-01T06:21:01;12.23;;;7.53;;
59054;SDS011;44845;51.444;7.460;2023-03-01T06:23:27;11.00;;;7.38;;
59054;SDS011;44845;51.444;7.460;2023-03-01T06:25:52;11.82;;;7.65;;
59054;SDS011;44845;51.444;7.460;2023-03-01T06:28:18;11.52;;;7.47;;
59054;SDS011;44845;51.444;7.460;2023-03-01T06:30:43;11.73;;;7.32;;
59054;SDS011;44845;51.444;7.460;2023-03-01T06:33:09;13.60;;;8.50;;
59054;SDS011;44845;51.444;7.460;2023-03-01T06:35:34;17.75;;;8.23;;
59054;SDS011;44845;51.444;7.460;2023-03-01T06:38:00;11.65;;;7.70;;
59054;SDS011;44845;51.444;7.460;2023-03-01T06:40:27;13.15;;;7.15;;
59054;SDS011;44845;51.444;7.460;2023-03-01T06:42:53;12.18;;;7.20;;
59054;SDS011;44845;51.444;7.460;2023-03-01T06:45:19;14.68;;;7.65;;
59054;SDS011;44845;51.444;7.460;2023-03-01T06:47:46;11.85;;;7.50;;
59054;SDS011;44845;51.444;7.460;2023-03-01T06:50:12;12.35;;;7.65;;
59054;SDS011;44845;51.444;7.460;2023-03-01T06:52:38;14.20;;;7.72;;
59054;SDS011;44845;51.444;7.460;2023-03-01T06:55:03;15.85;;;7.63;;
59054;SDS011;44845;51.444;7.460;2023-03-01T06:57:29;12.95;;;7.72;;
59054;SDS011;44845;51.444;7.460;2023-03-01T06:59:54;15.05;;;7.72;;
59054;SDS011;44845;51.444;7.460;2023-03-01T07:02:20;13.55;;;7.68;;
59054;SDS011;44845;51.444;7.460;2023-03-01T07:04:46;16.85;;;8.07;;
59054;SDS011;44845;51.444;7.460;2023-03-01T07:07:11;15.07;;;8.00;;
59054;SDS011;44845;51.444;7.460;2023-03-01T07:09:36;17.10;;;7.85;;
59054;SDS011;44845;51.444;7.460;2023-03-01T07:12:02;13.77;;;8.25;;
59054;SDS011;44845;51.444;7.460;2023-03-01T07:14:27;17.52;;;8.75;;
59054;SDS011;44845;51.444;7.460;2023-03-01T07:16:53;17.63;;;8.75;;
59054;SDS011;44845;51.444;7.460;2023-03-01T07:19:19;16.63;;;8.07;;
59054;SDS011;44845;51.444;7.460;2023-03-01T07:21:45;12.35;;;7.72;;
59054;SDS011;44845;51.444;7.460;2023-03-01T07:24:10;16.17;;;7.75;;
59054;SDS011;44845;51.444;7.460;2023-03-01T07:26:36;19.40;;;7.65;;
59054;SDS011;44845;51.444;7.460;2023-03-01T07:29:02;14.95;;;8.05;;
59054;SDS011;44845;51.444;7.460;2023-03-01T07:31:29;13.68;;;7.82;;
59054;SDS011;44845;51.444;7.460;2023-03-01T07:33:54;20.88;;;8.13;;
59054;SDS011;44845;51.444;7.460;2023-03-01T07:36:20;11.02;;;7.07;;
59054;SDS011;44845;51.444;7.460;2023-03-01T07:38:45;12.63;;;7.32;;
59054;SDS011;44845;51.444;7.460;2023-03-01T07:41:11;11.98;;;7.38;;
59054;SDS011;44845;51.444;7.460;2023-03-01T07:43:36;12.25;;;7.05;;
59054;SDS011;44845;51.444;7.460;2023-03-01T07:46:01;11.75;;;7.22;;
59054;SDS011;44845;51.444;7.460;2023-03-01T07:48:28;14.23;;;6.68;;
59054;SDS011;44845;51.444;7.460;2023-03-01T07:50:54;13.20;;;7.07;;
59054;SDS011;44845;51.444;7.460;2023-03-01T07:53:23;11.70;;;6.60;;
59054;SDS011;44845;51.444;7.460;2023-03-01T07:55:48;11.80;;;7.13;;
59054;SDS011;44845;51.444;7.460;2023-03-01T07:58:14;13.43;;;7.10;;
59054;SDS011;44845;51.444;7.460;2023-03-01T08:00:39;12.10;;;6.90;;
59054;SDS011;44845;51.444;7.460;2023-03-01T08:03:04;12.95;;;7.03;;
59054;SDS011;44845;51.444;7.460;2023-03-01T08:05:30;10.88;;;6.45;;
59054;SDS011;44845;51.444;7.460;2023-03-01T08:07:55;11.10;;;6.10;;
59054;SDS011;44845;51.444;7.460;2023-03-01T08:10:21;10.50;;;6.60;;
59054;SDS011;44845;51.444;7.460;2023-03-01T08:12:46;9.43;;;6.28;;
59054;SDS011;44845;51.444;7.460;2023-03-01T08:15:11;9.10;;;5.90;;
59054;SDS011;44845;51.444;7.460;2023-03-01T08:17:37;9.98;;;6.68;;
59054;SDS011;44845;51.444;7.460;2023-03-01T08:20:02;10.90;;;6.10;;
59054;SDS011;44845;51.444;7.460;2023-03-01T08:22:31;10.02;;;6.53;;
59054;SDS011;44845;51.444;7.460;2023-03-01T08:24:56;12.63;;;6.38;;
59054;SDS011;44845;51.444;7.460;2023-03-01T08:27:21;11.10;;;5.60;;
59054;SDS011;44845;51.444;7.460;2023-03-01T08:29:47;12.45;;;6.22;;
59054;SDS011;44845;51.444;7.460;2023-03-01T08:32:12;9.52;;;6.43;;
59054;SDS011;44845;51.444;7.460;2023-03-01T08:34:37;10.13;;;6.03;;
59054;SDS011;44845;51.444;7.460;2023-03-01T08:37:03;10.05;;;7.05;;
59054;SDS011;44845;51.444;7.460;2023-03-01T08:39:28;10.55;;;6.47;;
59054;SDS011;44845;51.444;7.460;2023-03-01T08:41:53;14.65;;;6.60;;
59054;SDS011;44845;51.444;7.460;2023-03-01T08:44:19;9.93;;;6.30;;
59054;SDS011;44845;51.444;7.460;2023-03-01T08:46:46;11.35;;;6.80;;
59054;SDS011;44845;51.444;7.460;2023-03-01T08:49:13;8.65;;;6.07;;
59054;SDS011;44845;51.444;7.460;2023-03-01T08:51:40;11.80;;;6.43;;
59054;SDS011;44845;51.444;7.460;2023-03-01T08:54:06;14.10;;;6.60;;
59054;SDS011;44845;51.444;7.460;2023-03-01T08:56:36;11.38;;;6.55;;
59054;SDS011;44845;51.444;7.460;2023-03-01T08:59:01;10.50;;;6.32;;
59054;SDS011;44845;51.444;7.460;2023-03-01T09:01:27;14.25;;;7.25;;
59054;SDS011;44845;51.444;7.460;2023-03-01T09:03:52;11.27;;;6.15;;
59054;SDS011;44845;51.444;7.460;2023-03-01T09:06:18;9.63;;;6.28;;
59054;SDS011;44845;51.444;7.460;2023-03-01T09:08:44;12.55;;;6.53;;
59054;SDS011;44845;51.444;7.460;2023-03-01T09:11:11;10.68;;;6.20;;
59054;SDS011;44845;51.444;7.460;2023-03-01T09:13:38;8.60;;;6.20;;
59054;SDS011;44845;51.444;7.460;2023-03-01T09:16:04;7.55;;;5.47;;
59054;SDS011;44845;51.444;7.460;2023-03-01T09:18:31;10.48;;;5.70;;
59054;SDS011;44845;51.444;7.460;2023-03-01T09:21:07;12.52;;;6.20;;
59054;SDS011;44845;51.444;7.460;2023-03-01T09:23:35;9.10;;;5.70;;
59054;SDS011;44845;51.444;7.460;2023-03-01T09:26:03;7.60;;;5.43;;
59054;SDS011;44845;51.444;7.460;2023-03-01T09:28:29;12.15;;;5.60;;
59054;SDS011;44845;51.444;7.460;2023-03-01T09:30:59;8.23;;;5.18;;
59054;SDS011;44845;51.444;7.460;2023-03-01T09:33:25;13.05;;;5.35;;
59054;SDS011;44845;51.444;7.460;2023-03-01T09:35:55;8.93;;;4.95;;
59054;SDS011;44845;51.444;7.460;2023-03-01T09:38:25;10.13;;;5.30;;
59054;SDS011;44845;51.444;7.460;2023-03-01T09:40:50;8.13;;;5.38;;
59054;SDS011;44845;51.444;7.460;2023-03-01T09:46:09;8.32;;;5.20;;
59054;SDS011;44845;51.444;7.460;2023-03-01T09:48:39;10.30;;;5.65;;
59054;SDS011;44845;51.444;7.460;2023-03-01T09:51:08;8.93;;;5.10;;
59054;SDS011;44845;51.444;7.460;2023-03-01T09:53:40;9.10;;;5.05;;
59054;SDS011;44845;51.444;7.460;2023-03-01T09:56:11;9.75;;;4.57;;
59054;SDS011;44845;51.444;7.460;2023-03-01T09:58:51;8.85;;;4.85;;
59054;SDS011;44845;51.444;7.460;2023-03-01T10:09:35;10.55;;;4.85;;
59054;SDS011;44845;51.444;7.460;2023-03-01T10:12:02;9.52;;;5.70;;
59054;SDS011;44845;51.444;7.460;2023-03-01T10:14:35;9.18;;;5.07;;
59054;SDS011;44845;51.444;7.460;2023-03-01T10:17:11;9.95;;;5.57;;
59054;SDS011;44845;51.444;7.460;2023-03-01T10:19:42;10.07;;;5.43;;
59054;SDS011;44845;51.444;7.460;2023-03-01T10:22:12;9.27;;;5.32;;
59054;SDS011;44845;51.444;7.460;2023-03-01T10:24:53;10.60;;;5.43;;
59054;SDS011;44845;51.444;7.460;2023-03-01T10:27:24;8.13;;;5.30;;
59054;SDS011;44845;51.444;7.460;2023-03-01T10:32:47;8.55;;;5.15;;
59054;SDS011;44845;51.444;7.460;2023-03-01T10:35:17;9.48;;;5.20;;
59054;SDS011;44845;51.444;7.460;2023-03-01T10:38:04;7.53;;;5.10;;
59054;SDS011;44845;51.444;7.460;2023-03-01T10:40:32;9.95;;;5.28;;
59054;SDS011;44845;51.444;7.460;2023-03-01T10:42:59;9.50;;;5.32;;
59054;SDS011;44845;51.444;7.460;2023-03-01T10:45:37;9.55;;;5.45;;
59054;SDS011;44845;51.444;7.460;2023-03-01T10:48:05;9.30;;;5.47;;
59054;SDS011;44845;51.444;7.460;2023-03-01T10:50:31;10.20;;;5.72;;
59054;SDS011;44845;51.444;7.460;2023-03-01T10:53:00;9.50;;;5.72;;
59054;SDS011;44845;51.444;7.460;2023-03-01T10:55:35;11.10;;;6.00;;
59054;SDS011;44845;51.444;7.460;2023-03-01T11:00:47;10.25;;;5.95;;
59054;SDS011;44845;51.444;7.460;2023-03-01T11:06:04;8.88;;;5.22;;
59054;SDS011;44845;51.444;7.460;2023-03-01T11:08:51;9.38;;;5.35;;
59054;SDS011;44845;51.444;7.460;2023-03-01T11:11:25;9.30;;;5.93;;
59054;SDS011;44845;51.444;7.460;2023-03-01T11:14:00;9.07;;;5.38;;
59054;SDS011;44845;51.444;7.460;2023-03-01T11:16:38;7.13;;;5.40;;
59054;SDS011;44845;51.444;7.460;2023-03-01T11:21:35;9.40;;;5.72;;
59054;SDS011;44845;51.444;7.460;2023-03-01T11:24:04;9.63;;;5.57;;
59054;SDS011;44845;51.444;7.460;2023-03-01T11:26:36;9.95;;;6.13;;
59054;SDS011;44845;51.444;7.460;2023-03-01T11:29:07;8.90;;;5.82;;
59054;SDS011;44845;51.444;7.460;2023-03-01T11:31:46;12.20;;;6.05;;
59054;SDS011;44845;51.444;7.460;2023-03-01T11:34:17;8.75;;;5.75;;
59054;SDS011;44845;51.444;7.460;2023-03-01T11:36:52;12.52;;;6.03;;
59054;SDS011;44845;51.444;7.460;2023-03-01T11:39:32;8.82;;;5.90;;
59054;SDS011;44845;51.444;7.460;2023-03-01T11:42:06;9.48;;;6.25;;
59054;SDS011;44845;51.444;7.460;2023-03-01T11:44:35;9.90;;;5.43;;
59054;SDS011;44845;51.444;7.460;2023-03-01T11:58:26;8.52;;;5.38;;
59054;SDS011;44845;51.444;7.460;2023-03-01T12:01:02;9.18;;;6.00;;
59054;SDS011;44845;51.444;7.460;2023-03-01T12:03:54;10.63;;;6.00;;
59054;SDS011;44845;51.444;7.460;2023-03-01T12:17:17;9.60;;;5.78;;
59054;SDS011;44845;51.444;7.460;2023-03-01T12:20:09;11.25;;;5.45;;
59054;SDS011;44845;51.444;7.460;2023-03-01T12:22:57;12.48;;;5.68;;
59054;SDS011;44845;51.444;7.460;2023-03-01T12:28:38;10.38;;;5.78;;
59054;SDS011;44845;51.444;7.460;2023-03-01T12:36:57;11.77;;;6.25;;
59054;SDS011;44845;51.444;7.460;2023-03-01T12:42:21;12.90;;;5.88;;
59054;SDS011;44845;51.444;7.460;2023-03-01T12:47:58;9.63;;;5.93;;
59054;SDS011;44845;51.444;7.460;2023-03-01T12:50:44;9.38;;;5.53;;
59054;SDS011;44845;51.444;7.460;2023-03-01T12:55:45;11.75;;;5.75;;
59054;SDS011;44845;51.444;7.460;2023-03-01T13:01:15;9.23;;;5.15;;
59054;SDS011;44845;51.444;7.460;2023-03-01T13:04:14;10.80;;;4.93;;
59054;SDS011;44845;51.444;7.460;2023-03-01T13:06:47;10.45;;;5.55;;
59054;SDS011;44845;51.444;7.460;2023-03-01T13:15:31;9.52;;;4.88;;
59054;SDS011;44845;51.444;7.460;2023-03-01T13:20:32;8.05;;;5.28;;
59054;SDS011;44845;51.444;7.460;2023-03-01T13:31:09;8.98;;;5.47;;
59054;SDS011;44845;51.444;7.460;2023-03-01T13:33:47;6.75;;;4.60;;
59054;SDS011;44845;51.444;7.460;2023-03-01T13:41:53;10.27;;;5.22;;
59054;SDS011;44845;51.444;7.460;2023-03-01T13:49:46;9.02;;;5.20;;
59054;SDS011;44845;51.444;7.460;2023-03-01T13:52:25;8.00;;;4.65;;
59054;SDS011;44845;51.444;7.460;2023-03-01T13:55:13;9.73;;;5.68;;
59054;SDS011;44845;51.444;7.460;2023-03-01T13:57:49;10.63;;;5.50;;
59054;SDS011;44845;51.444;7.460;2023-03-01T14:00:36;8.32;;;4.97;;
59054;SDS011;44845;51.444;7.460;2023-03-01T14:03:03;8.40;;;5.22;;
59054;SDS011;44845;51.444;7.460;2023-03-01T14:05:37;9.65;;;4.70;;
59054;SDS011;44845;51.444;7.460;2023-03-01T14:08:04;8.68;;;4.70;;
59054;SDS011;44845;51.444;7.460;2023-03-01T14:10:40;8.10;;;4.28;;
59054;SDS011;44845;51.444;7.460;2023-03-01T14:13:31;9.55;;;4.70;;
59054;SDS011;44845;51.444;7.460;2023-03-01T14:19:10;7.18;;;4.80;;
59054;SDS011;44845;51.444;7.460;2023-03-01T14:21:45;7.32;;;4.90;;
59054;SDS011;44845;51.444;7.460;2023-03-01T14:24:17;8.15;;;5.10;;
59054;SDS011;44845;51.444;7.460;2023-03-01T14:26:46;7.47;;;4.63;;
59054;SDS011;44845;51.444;7.460;2023-03-01T14:29:28;7.28;;;4.72;;
59054;SDS011;44845;51.444;7.460;2023-03-01T14:34:44;8.27;;;5.07;;
59054;SDS011;44845;51.444;7.460;2023-03-01T14:39:46;7.82;;;4.38;;
59054;SDS011;44845;51.444;7.460;2023-03-01T14:42:12;6.43;;;4.20;;
59054;SDS011;44845;51.444;7.460;2023-03-01T14:44:40;7.63;;;4.47;;
59054;SDS011;44845;51.444;7.460;2023-03-01T14:47:10;10.02;;;4.57;;
59054;SDS011;44845;51.444;7.460;2023-03-01T14:49:40;11.90;;;4.57;;
59054;SDS011;44845;51.444;7.460;2023-03-01T14:52:08;8.90;;;3.95;;
59054;SDS011;44845;51.444;7.460;2023-03-01T14:54:46;6.70;;;3.85;;
59054;SDS011;44845;51.444;7.460;2023-03-01T14:57:15;6.60;;;4.45;;
59054;SDS011;44845;51.444;7.460;2023-03-01T14:59:42;5.72;;;4.03;;
59054;SDS011;44845;51.444;7.460;2023-03-01T15:02:11;7.88;;;4.80;;
59054;SDS011;44845;51.444;7.460;2023-03-01T15:04:48;10.77;;;4.55;;
59054;SDS011;44845;51.444;7.460;2023-03-01T15:07:16;7.32;;;5.00;;
59054;SDS011;44845;51.444;7.460;2023-03-01T15:09:42;7.07;;;4.40;;
59054;SDS011;44845;51.444;7.460;2023-03-01T15:14:52;8.48;;;4.35;;
59054;SDS011;44845;51.444;7.460;2023-03-01T15:17:37;7.38;;;4.47;;
59054;SDS011;44845;51.444;7.460;2023-03-01T15:20:05;9.27;;;4.57;;
59054;SDS011;44845;51.444;7.460;2023-03-01T15:22:32;6.43;;;4.38;;
59054;SDS011;44845;51.444;7.460;2023-03-01T15:24:57;6.70;;;4.35;;
59054;SDS011;44845;51.444;7.460;2023-03-01T15:27:24;7.05;;;3.78;;
59054;SDS011;44845;51.444;7.460;2023-03-01T15:34:50;10.35;;;4.65;;
59054;SDS011;44845;51.444;7.460;2023-03-01T15:40:20;8.48;;;5.05;;
59054;SDS011;44845;51.444;7.460;2023-03-01T15:42:49;7.63;;;4.47;;
59054;SDS011;44845;51.444;7.460;2023-03-01T15:47:43;8.40;;;4.78;;
59054;SDS011;44845;51.444;7.460;2023-03-01T15:50:21;8.18;;;4.57;;
59054;SDS011;44845;51.444;7.460;2023-03-01T15:52:48;7.88;;;4.97;;
59054;SDS011;44845;51.444;7.460;2023-03-01T15:55:24;7.43;;;4.63;;
59054;SDS011;44845;51.444;7.460;2023-03-01T15:58:12;8.32;;;4.78;;
59054;SDS011;44845;51.444;7.460;2023-03-01T16:00:39;6.75;;;4.60;;
59054;SDS011;44845;51.444;7.460;2023-03-01T16:03:05;6.70;;;4.50;;
59054;SDS011;44845;51.444;7.460;2023-03-01T16:05:33;8.60;;;4.70;;
59054;SDS011;44845;51.444;7.460;2023-03-01T16:07:59;6.00;;;4.35;;
59054;SDS011;44845;51.444;7.460;2023-03-01T16:10:25;7.18;;;4.65;;
59054;SDS011;44845;51.444;7.460;2023-03-01T16:12:52;8.55;;;4.30;;
59054;SDS011;44845;51.444;7.460;2023-03-01T16:15:19;10.13;;;4.75;;
59054;SDS011;44845;51.444;7.460;2023-03-01T16:17:46;8.38;;;4.85;;
59054;SDS011;44845;51.444;7.460;2023-03-01T16:20:12;8.48;;;4.30;;
59054;SDS011;44845;51.444;7.460;2023-03-01T16:22:40;10.07;;;4.90;;
59054;SDS011;44845;51.444;7.460;2023-03-01T16:25:09;8.80;;;4.28;;
59054;SDS011;44845;51.444;7.460;2023-03-01T16:27:36;7.05;;;4.20;;
59054;SDS011;44845;51.444;7.460;2023-03-01T16:30:02;9.70;;;4.63;;
59054;SDS011;44845;51.444;7.460;2023-03-01T16:32:29;8.00;;;4.72;;
59054;SDS011;44845;51.444;7.460;2023-03-01T16:34:54;6.25;;;4.30;;
59054;SDS011;44845;51.444;7.460;2023-03-01T16:37:19;7.55;;;4.80;;
59054;SDS011;44845;51.444;7.460;2023-03-01T16:39:46;8.43;;;4.90;;
59054;SDS011;44845;51.444;7.460;2023-03-01T16:42:13;8.45;;;4.18;;
59054;SDS011;44845;51.444;7.460;2023-03-01T16:44:39;10.45;;;4.57;;
59054;SDS011;44845;51.444;7.460;2023-03-01T16:47:04;9.05;;;4.60;;
59054;SDS011;44845;51.444;7.460;2023-03-01T16:49:30;10.43;;;4.15;;
59054;SDS011;44845;51.444;7.460;2023-03-01T16:51:55;9.65;;;4.95;;
59054;SDS011;44845;51.444;7.460;2023-03-01T16:54:20;8.07;;;4.30;;